Time;durP1;ratioP1;P1;durP2;ratioP2;P2;SDS_P1;SDS_P2;PMS_P1;PMS_P2;Temp;Humidity;BMP_temperature;BMP_pressure;BME280_temperature;BME280_humidity;BME280_pressure;Samples;Min_cycle;Max_cycle;Signal;HPM_P1;HPM_P2
2024/02/26 00:00:30;;;;;;;2.88;2.00;;;16.70;85.70;;;;;;5073330;28;20020;-40
2024/02/26 00:02:56;;;;;;;3.38;2.17;;;16.70;85.70;;;;;;5073429;28;20025;-40
2024/02/26 00:05:21;;;;;;;3.10;2.10;;;16.70;86.50;;;;;;5072991;28;20099;-41
2024/02/26 00:07:48;;;;;;;3.00;2.13;;;16.70;85.90;;;;;;5073178;28;20031;-42
2024/02/26 00:10:14;;;;;;;3.15;2.00;;;16.70;85.80;;;;;;5072717;28;20111;-39
2024/02/26 00:12:40;;;;;;;3.60;2.00;;;16.70;85.90;;;;;;5072815;28;20174;-43
2024/02/26 00:15:08;;;;;;;4.15;2.05;;;16.70;85.90;;;;;;5073126;28;20032;-43
2024/02/26 00:17:33;;;;;;;4.35;2.00;;;16.70;85.90;;;;;;5072840;28;20533;-44
2024/02/26 00:20:00;;;;;;;3.28;1.95;;;16.70;85.90;;;;;;5072771;28;20028;-44
2024/02/26 00:22:26;;;;;;;3.28;2.28;;;16.70;85.90;;;;;;5073042;28;20025;-44
2024/02/26 00:24:52;;;;;;;3.83;2.17;;;16.70;85.90;;;;;;5073232;28;20115;-44
2024/02/26 00:27:17;;;;;;;2.40;1.73;;;16.70;85.90;;;;;;5072563;28;20159;-44
2024/02/26 00:29:43;;;;;;;2.03;1.50;;;16.70;85.90;;;;;;5072869;28;20025;-44
2024/02/26 00:32:09;;;;;;;3.40;2.05;;;16.70;85.90;;;;;;5072571;28;20024;-39
2024/02/26 00:34:35;;;;;;;3.40;1.98;;;16.70;85.90;;;;;;5072634;28;20445;-38
2024/02/26 00:37:02;;;;;;;2.45;1.80;;;16.70;85.90;;;;;;5072497;28;20043;-43
2024/02/26 00:39:27;;;;;;;2.60;1.80;;;16.70;85.90;;;;;;5072883;28;20096;-43
2024/02/26 00:41:53;;;;;;;3.00;2.00;;;16.70;85.90;;;;;;5072354;28;20032;-40
2024/02/26 00:44:18;;;;;;;2.42;1.75;;;16.70;85.90;;;;;;5072535;28;20028;-42
2024/02/26 00:46:44;;;;;;;3.30;1.70;;;16.70;85.90;;;;;;5072032;28;20089;-44
2024/02/26 00:49:10;;;;;;;2.70;1.70;;;16.60;86.00;;;;;;5072073;28;20024;-44
2024/02/26 00:51:35;;;;;;;2.20;1.60;;;16.70;86.00;;;;;;5071648;28;20478;-44
2024/02/26 00:54:01;;;;;;;2.80;2.00;;;16.60;85.80;;;;;;5071970;28;20027;-43
2024/02/26 00:56:27;;;;;;;3.40;2.30;;;16.60;85.90;;;;;;5071921;28;20028;-44
2024/02/26 00:58:53;;;;;;;3.22;1.70;;;16.60;85.90;;;;;;5072171;28;20017;-44
2024/02/26 01:01:18;;;;;;;2.25;1.50;;;16.60;86.00;;;;;;5071727;28;20034;-44
2024/02/26 01:03:44;;;;;;;2.42;1.63;;;16.60;86.00;;;;;;5071857;28;20024;-44
2024/02/26 01:06:09;;;;;;;3.55;1.98;;;16.60;86.00;;;;;;5071797;28;20028;-43
2024/02/26 01:08:37;;;;;;;4.00;1.80;;;16.60;86.10;;;;;;5071718;28;20031;-44
2024/02/26 01:11:03;;;;;;;2.15;1.42;;;16.60;86.10;;;;;;5071985;28;20055;-43
2024/02/26 01:13:29;;;;;;;2.08;1.70;;;16.60;86.20;;;;;;5072037;28;20470;-36
2024/02/26 01:15:55;;;;;;;2.00;1.40;;;16.60;86.20;;;;;;5071841;28;20028;-41
2024/02/26 01:18:20;;;;;;;2.88;1.70;;;16.60;86.20;;;;;;5071714;28;20024;-41
2024/02/26 01:20:46;;;;;;;3.53;1.92;;;16.50;86.20;;;;;;5071462;28;20115;-42
2024/02/26 01:23:12;;;;;;;2.85;1.90;;;16.50;86.20;;;;;;5071590;28;20029;-44
2024/02/26 01:25:39;;;;;;;3.20;1.70;;;16.60;86.30;;;;;;5071468;28;20036;-44
2024/02/26 01:28:05;;;;;;;3.58;1.75;;;16.50;86.30;;;;;;5071239;28;20106;-44
2024/02/26 01:30:31;;;;;;;2.88;1.58;;;16.50;86.20;;;;;;5071378;28;20021;-44
2024/02/26 01:32:56;;;;;;;2.05;1.40;;;16.60;86.30;;;;;;5071377;28;20112;-44
2024/02/26 01:35:22;;;;;;;2.03;1.33;;;16.50;86.40;;;;;;5071182;28;20578;-44
2024/02/26 01:37:48;;;;;;;1.90;1.50;;;16.50;86.30;;;;;;5071246;28;20031;-44
2024/02/26 01:40:17;;;;;;;2.78;1.63;;;16.50;86.30;;;;;;5071208;28;20058;-44
2024/02/26 01:42:43;;;;;;;1.83;1.40;;;16.50;86.40;;;;;;5071397;28;20067;-44
2024/02/26 01:45:24;;;;;;;2.20;1.40;;;16.50;86.40;;;;;;5071213;28;20032;-44
2024/02/26 01:47:53;;;;;;;2.42;1.60;;;16.50;86.40;;;;;;5071042;28;20028;-44
2024/02/26 01:50:20;;;;;;;2.33;1.60;;;16.50;86.40;;;;;;5070964;28;20089;-44
2024/02/26 01:52:50;;;;;;;3.30;1.73;;;16.50;86.50;;;;;;5071093;28;20494;-44
2024/02/26 01:55:17;;;;;;;2.33;1.50;;;16.50;86.50;;;;;;5069635;28;20544;-40
2024/02/26 01:57:45;;;;;;;1.95;1.58;;;16.50;86.60;;;;;;5071258;28;20107;-43
2024/02/26 02:00:12;;;;;;;2.38;1.60;;;16.50;86.50;;;;;;5071161;28;20103;-41
2024/02/26 02:02:39;;;;;;;2.50;1.63;;;16.50;86.60;;;;;;5070621;28;20024;-41
2024/02/26 02:05:06;;;;;;;4.07;1.52;;;16.50;86.60;;;;;;5071025;28;20028;-43
2024/02/26 02:07:32;;;;;;;2.28;1.52;;;16.50;86.70;;;;;;5071071;28;20374;-43
2024/02/26 02:09:58;;;;;;;1.30;1.13;;;16.50;86.60;;;;;;5070816;28;20020;-41
2024/02/26 02:12:24;;;;;;;2.15;1.40;;;16.50;86.70;;;;;;5070917;28;20037;-41
2024/02/26 02:14:50;;;;;;;2.03;1.40;;;16.50;86.80;;;;;;5070867;28;20600;-44
2024/02/26 02:17:16;;;;;;;2.10;1.20;;;16.50;86.90;;;;;;5071041;28;20073;-43
2024/02/26 02:19:41;;;;;;;1.70;1.38;;;16.50;86.90;;;;;;5070902;28;20509;-44
2024/02/26 02:22:07;;;;;;;1.80;1.25;;;16.40;86.90;;;;;;5071337;28;20656;-43
2024/02/26 02:24:32;;;;;;;1.80;1.40;;;16.40;86.90;;;;;;5070904;28;20052;-43
2024/02/26 02:26:58;;;;;;;1.80;1.35;;;16.40;86.90;;;;;;5070911;28;20050;-43
2024/02/26 02:29:24;;;;;;;1.77;1.17;;;16.40;86.90;;;;;;5070505;28;20128;-43
2024/02/26 02:31:50;;;;;;;1.67;1.25;;;16.50;87.00;;;;;;5070981;28;20115;-44
2024/02/26 02:34:16;;;;;;;1.75;1.15;;;16.50;87.00;;;;;;5070882;28;20017;-44
2024/02/26 02:37:07;;;;;;;2.15;1.25;;;16.50;87.00;;;;;;5070503;28;20483;-40
2024/02/26 02:39:33;;;;;;;1.80;1.20;;;16.50;87.00;;;;;;5069973;28;20036;-44
2024/02/26 02:41:59;;;;;;;1.50;1.08;;;16.50;87.00;;;;;;5069563;28;20037;-40
2024/02/26 02:44:24;;;;;;;1.73;0.95;;;16.50;87.10;;;;;;5070963;28;20079;-44
2024/02/26 02:46:53;;;;;;;1.77;1.30;;;16.50;87.10;;;;;;5070478;28;20032;-44
2024/02/26 02:49:18;;;;;;;1.60;1.20;;;16.50;87.10;;;;;;5070536;28;20443;-44
2024/02/26 02:51:44;;;;;;;1.38;1.00;;;16.50;87.20;;;;;;5070649;28;20067;-45
2024/02/26 02:54:09;;;;;;;2.38;1.20;;;16.50;87.20;;;;;;5070832;28;20027;-45
2024/02/26 02:56:35;;;;;;;1.55;1.13;;;16.40;87.20;;;;;;5070653;28;20029;-45
2024/02/26 02:59:02;;;;;;;1.67;0.90;;;16.40;87.20;;;;;;5070258;28;20048;-43
2024/02/26 03:01:27;;;;;;;1.67;0.98;;;16.50;87.30;;;;;;5070951;28;20483;-40
2024/02/26 03:03:53;;;;;;;1.48;1.00;;;16.40;87.20;;;;;;5070600;28;20104;-43
2024/02/26 03:06:20;;;;;;;1.55;1.00;;;16.40;87.30;;;;;;5070561;28;20028;-42
2024/02/26 03:08:46;;;;;;;2.10;1.17;;;16.40;87.30;;;;;;5070272;28;20024;-44
2024/02/26 03:11:15;;;;;;;1.60;1.10;;;16.40;87.30;;;;;;5070386;28;20031;-44
2024/02/26 03:13:41;;;;;;;1.40;0.90;;;16.40;87.30;;;;;;5072157;28;20017;-42
2024/02/26 03:16:08;;;;;;;1.38;1.02;;;16.40;87.40;;;;;;5073874;28;20021;-44
2024/02/26 03:18:34;;;;;;;1.55;1.10;;;16.40;87.50;;;;;;5074188;28;20036;-44
2024/02/26 03:20:59;;;;;;;1.48;1.05;;;16.40;87.50;;;;;;5073591;28;20024;-44
2024/02/26 03:23:25;;;;;;;1.67;1.05;;;16.40;87.60;;;;;;5073786;28;20021;-44
2024/02/26 03:25:51;;;;;;;2.10;1.00;;;16.40;87.60;;;;;;5074123;28;20028;-44
2024/02/26 03:28:16;;;;;;;1.42;0.85;;;16.40;87.60;;;;;;5073857;28;20037;-44
2024/02/26 03:30:42;;;;;;;1.40;0.90;;;16.50;87.70;;;;;;5074058;28;20023;-44
2024/02/26 03:33:07;;;;;;;1.33;0.95;;;16.40;87.60;;;;;;5073651;28;20078;-44
2024/02/26 03:35:33;;;;;;;1.27;0.80;;;16.40;87.70;;;;;;5073485;28;20109;-45
2024/02/26 03:37:59;;;;;;;1.15;0.98;;;16.40;87.70;;;;;;5072918;28;20025;-44
2024/02/26 03:40:24;;;;;;;1.33;0.90;;;16.40;87.70;;;;;;5073366;28;20025;-44
2024/02/26 03:42:52;;;;;;;1.45;1.13;;;16.40;87.70;;;;;;5073590;28;20028;-44
2024/02/26 03:45:18;;;;;;;1.60;0.80;;;16.40;87.70;;;;;;5073495;28;20031;-44
2024/02/26 03:47:44;;;;;;;1.00;0.90;;;16.40;87.70;;;;;;5073238;28;20028;-43
2024/02/26 03:50:09;;;;;;;1.48;0.98;;;16.40;87.70;;;;;;5072938;28;20407;-45
2024/02/26 03:52:35;;;;;;;1.50;0.90;;;16.40;87.80;;;;;;5073144;28;20060;-44
2024/02/26 03:55:00;;;;;;;1.30;0.80;;;16.40;87.80;;;;;;5073245;28;20028;-42
2024/02/26 03:57:26;;;;;;;1.25;0.70;;;16.40;87.80;;;;;;5073181;28;20035;-42
2024/02/26 03:59:52;;;;;;;0.90;0.70;;;16.40;87.80;;;;;;5072957;28;20020;-44
2024/02/26 04:02:19;;;;;;;1.35;0.90;;;16.40;87.80;;;;;;5072914;28;20403;-43
2024/02/26 04:04:45;;;;;;;2.20;1.00;;;16.40;87.90;;;;;;5073216;28;20432;-44
2024/02/26 04:07:11;;;;;;;1.33;0.70;;;16.40;87.90;;;;;;5072756;28;20017;-44
2024/02/26 04:09:37;;;;;;;1.30;0.90;;;16.40;87.90;;;;;;5072958;28;20043;-43
2024/02/26 04:12:03;;;;;;;1.20;0.88;;;16.40;87.90;;;;;;5072919;28;20025;-43
2024/02/26 04:14:29;;;;;;;1.90;0.95;;;16.40;87.90;;;;;;5072910;28;20097;-43
2024/02/26 04:16:54;;;;;;;1.17;0.82;;;16.40;88.00;;;;;;5072673;28;20415;-43
2024/02/26 04:19:20;;;;;;;0.88;0.60;;;16.40;88.00;;;;;;5072512;28;20111;-44
2024/02/26 04:21:46;;;;;;;1.52;0.80;;;16.40;87.90;;;;;;5072763;28;20032;-44
2024/02/26 04:24:11;;;;;;;1.20;0.77;;;16.30;87.90;;;;;;5072274;28;20024;-44
2024/02/26 04:26:37;;;;;;;1.67;0.85;;;16.30;88.00;;;;;;5072230;28;20071;-44
2024/02/26 04:29:03;;;;;;;2.08;0.77;;;16.30;88.00;;;;;;5072330;28;20484;-44
2024/02/26 04:31:28;;;;;;;0.90;0.75;;;16.30;88.00;;;;;;5072609;28;20028;-42
2024/02/26 04:33:54;;;;;;;1.13;0.70;;;16.20;88.00;;;;;;5073023;28;20047;-44
2024/02/26 04:36:20;;;;;;;0.98;0.70;;;16.10;88.10;;;;;;5072210;28;20017;-44
2024/02/26 04:38:46;;;;;;;0.80;0.55;;;16.10;89.00;;;;;;5072205;28;20421;-44
2024/02/26 04:41:12;;;;;;;1.25;0.80;;;16.00;88.40;;;;;;5072319;28;20421;-44
2024/02/26 04:43:44;;;;;;;1.00;0.70;;;15.90;88.60;;;;;;5072422;28;20021;-44
2024/02/26 04:46:10;;;;;;;1.10;0.80;;;15.80;88.80;;;;;;5072704;28;20036;-44
2024/02/26 04:48:38;;;;;;;0.98;0.52;;;15.80;89.10;;;;;;5071982;28;20021;-44
2024/02/26 04:51:04;;;;;;;1.02;0.70;;;15.70;89.30;;;;;;5071992;28;20021;-42
2024/02/26 04:53:30;;;;;;;0.98;0.63;;;15.60;89.40;;;;;;5072256;28;20020;-42
2024/02/26 04:55:56;;;;;;;0.80;0.60;;;15.50;89.70;;;;;;5072006;28;20424;-42
2024/02/26 04:58:21;;;;;;;0.82;0.70;;;15.40;89.90;;;;;;5070492;28;20025;-42
2024/02/26 05:00:47;;;;;;;1.20;0.80;;;15.30;90.00;;;;;;5071802;28;20042;-40
2024/02/26 05:03:13;;;;;;;1.35;0.90;;;15.20;90.10;;;;;;5071847;28;20046;-40
2024/02/26 05:05:43;;;;;;;1.10;0.68;;;15.20;90.30;;;;;;5071751;28;20033;-42
2024/02/26 05:08:08;;;;;;;0.70;0.60;;;15.10;90.40;;;;;;5071888;28;20107;-40
2024/02/26 05:10:38;;;;;;;0.70;0.70;;;15.00;90.50;;;;;;5071698;28;20151;-44
2024/02/26 05:13:04;;;;;;;0.80;0.60;;;15.00;90.60;;;;;;5071790;28;20054;-40
2024/02/26 05:15:30;;;;;;;1.30;0.55;;;14.80;90.60;;;;;;5070678;28;20055;-41
2024/02/26 05:17:56;;;;;;;0.80;0.60;;;14.70;90.70;;;;;;5071076;28;20490;-46
2024/02/26 05:20:21;;;;;;;1.17;0.63;;;14.70;90.80;;;;;;5071465;28;20029;-45
2024/02/26 05:22:47;;;;;;;0.82;0.60;;;14.70;91.00;;;;;;5071639;28;20115;-46
2024/02/26 05:25:15;;;;;;;0.77;0.70;;;14.60;91.10;;;;;;5071634;28;20028;-46
2024/02/26 05:27:41;;;;;;;1.35;0.70;;;14.50;91.20;;;;;;5071239;28;20029;-46
2024/02/26 05:30:07;;;;;;;1.05;0.52;;;14.50;91.20;;;;;;5071326;28;20483;-46
2024/02/26 05:32:33;;;;;;;0.98;0.60;;;14.40;91.30;;;;;;5071288;28;20025;-46
2024/02/26 05:34:59;;;;;;;1.05;0.60;;;14.30;91.40;;;;;;5071449;28;20381;-45
2024/02/26 05:37:24;;;;;;;1.08;0.70;;;14.20;91.50;;;;;;5070955;28;20029;-45
2024/02/26 05:39:50;;;;;;;1.38;0.60;;;14.20;91.60;;;;;;5069825;28;20143;-46
2024/02/26 05:42:15;;;;;;;1.25;0.60;;;14.10;91.70;;;;;;5071591;28;20478;-46
2024/02/26 05:44:41;;;;;;;1.00;0.80;;;14.10;91.80;;;;;;5071586;28;20070;-46
2024/02/26 05:47:07;;;;;;;0.80;0.70;;;14.00;91.90;;;;;;5070925;28;20055;-46
2024/02/26 05:49:33;;;;;;;2.42;0.80;;;14.00;92.00;;;;;;5069552;28;20127;-46
2024/02/26 05:51:59;;;;;;;0.80;0.52;;;13.90;92.00;;;;;;5071179;28;20028;-46
2024/02/26 05:54:24;;;;;;;0.88;0.60;;;13.80;92.00;;;;;;5071122;28;20402;-46
2024/02/26 05:56:50;;;;;;;1.05;0.77;;;13.70;92.10;;;;;;5070972;28;20023;-45
2024/02/26 05:59:16;;;;;;;0.60;0.50;;;13.70;92.20;;;;;;5070876;28;20100;-45
2024/02/26 06:01:42;;;;;;;0.57;0.40;;;13.60;92.20;;;;;;5070908;28;20375;-46
2024/02/26 06:04:07;;;;;;;1.50;0.70;;;13.60;92.30;;;;;;5071088;28;20481;-43
2024/02/26 06:06:33;;;;;;;0.90;0.65;;;13.50;92.40;;;;;;5071092;28;20501;-44
2024/02/26 06:08:59;;;;;;;1.38;0.80;;;13.50;92.50;;;;;;5070681;28;20555;-42
2024/02/26 06:11:24;;;;;;;0.85;0.60;;;13.40;92.60;;;;;;5070853;28;20024;-43
2024/02/26 06:13:50;;;;;;;1.10;0.75;;;13.40;92.70;;;;;;5070914;28;20031;-44
2024/02/26 06:16:15;;;;;;;0.75;0.52;;;13.40;92.70;;;;;;5070587;28;20024;-45
2024/02/26 06:18:41;;;;;;;1.00;0.70;;;13.30;92.80;;;;;;5070720;28;20723;-45
2024/02/26 06:21:10;;;;;;;2.85;0.75;;;13.30;92.90;;;;;;5070674;28;20078;-45
2024/02/26 06:23:37;;;;;;;2.60;0.60;;;13.30;93.00;;;;;;5070881;28;20040;-43
2024/02/26 06:26:03;;;;;;;1.35;0.82;;;13.20;93.10;;;;;;5070388;28;20021;-45
2024/02/26 06:28:30;;;;;;;2.13;0.63;;;13.20;93.20;;;;;;5070802;28;20555;-40
2024/02/26 06:30:56;;;;;;;1.45;0.80;;;13.10;93.30;;;;;;5070491;28;20169;-45
2024/02/26 06:33:21;;;;;;;1.13;0.80;;;13.10;93.40;;;;;;5070659;28;20514;-46
2024/02/26 06:35:47;;;;;;;1.20;0.70;;;13.10;93.40;;;;;;5070624;28;20079;-46
2024/02/26 06:38:13;;;;;;;0.82;0.70;;;13.10;93.50;;;;;;5070387;28;20453;-45
2024/02/26 06:40:39;;;;;;;1.52;0.70;;;13.10;93.60;;;;;;5070462;28;20087;-46
2024/02/26 06:43:05;;;;;;;1.02;0.60;;;13.10;93.60;;;;;;5069289;28;20536;-45
2024/02/26 06:45:31;;;;;;;2.35;0.70;;;13.00;93.70;;;;;;5070505;28;20032;-45
2024/02/26 06:47:57;;;;;;;1.10;0.70;;;13.00;93.70;;;;;;5070963;28;20066;-44
2024/02/26 06:50:23;;;;;;;1.02;0.65;;;13.10;93.80;;;;;;5074280;28;20024;-45
2024/02/26 06:52:48;;;;;;;1.13;0.70;;;13.00;93.80;;;;;;5074288;28;20437;-45
2024/02/26 06:55:14;;;;;;;0.75;0.55;;;13.10;93.80;;;;;;5074348;28;20024;-45
2024/02/26 06:57:40;;;;;;;0.82;0.50;;;13.10;93.80;;;;;;5074326;28;20494;-45
2024/02/26 07:00:06;;;;;;;1.95;0.68;;;13.10;93.80;;;;;;5074037;28;20021;-45
2024/02/26 07:02:31;;;;;;;0.88;0.60;;;13.10;93.80;;;;;;5074595;28;20127;-45
2024/02/26 07:04:58;;;;;;;1.42;0.65;;;13.20;93.80;;;;;;5074144;28;20111;-45
2024/02/26 07:07:24;;;;;;;1.23;0.70;;;13.20;93.80;;;;;;5073860;28;20030;-45
2024/02/26 07:09:50;;;;;;;0.65;0.50;;;13.20;93.80;;;;;;5073866;28;20095;-45
2024/02/26 07:12:16;;;;;;;0.60;0.50;;;13.30;93.70;;;;;;5073916;28;20510;-45
2024/02/26 07:14:42;;;;;;;0.73;0.50;;;13.30;93.70;;;;;;5073948;28;20056;-45
2024/02/26 07:17:08;;;;;;;0.80;0.70;;;13.30;93.70;;;;;;5073788;28;20479;-45
2024/02/26 07:19:34;;;;;;;1.38;0.85;;;13.40;93.60;;;;;;5073645;28;20060;-46
2024/02/26 07:22:01;;;;;;;0.77;0.55;;;13.40;93.60;;;;;;5073816;28;20032;-46
2024/02/26 07:24:27;;;;;;;0.63;0.50;;;13.50;93.60;;;;;;5073832;28;20016;-46
2024/02/26 07:26:55;;;;;;;0.90;0.57;;;13.50;93.60;;;;;;5073494;28;20028;-46
2024/02/26 07:29:21;;;;;;;1.75;0.60;;;13.50;93.50;;;;;;5073619;28;20073;-46
2024/02/26 07:31:47;;;;;;;1.23;0.70;;;13.60;93.50;;;;;;5073682;28;20099;-46
2024/02/26 07:34:13;;;;;;;1.88;1.20;;;13.60;93.40;;;;;;5073700;28;20040;-46
2024/02/26 07:36:39;;;;;;;2.75;1.67;;;13.60;93.40;;;;;;5073566;28;20024;-46
2024/02/26 07:39:05;;;;;;;2.75;1.65;;;13.60;93.50;;;;;;5073237;28;20031;-43
2024/02/26 07:41:31;;;;;;;3.03;2.13;;;13.70;93.60;;;;;;5073626;28;20036;-46
2024/02/26 07:43:56;;;;;;;3.08;2.33;;;13.70;93.60;;;;;;5073603;28;20078;-46
2024/02/26 07:46:22;;;;;;;6.20;2.45;;;13.70;93.80;;;;;;5073462;28;20025;-46
2024/02/26 07:48:48;;;;;;;3.58;2.40;;;13.70;93.80;;;;;;5073273;28;20031;-46
2024/02/26 07:51:14;;;;;;;4.72;2.47;;;13.70;93.80;;;;;;5073120;28;20028;-46
2024/02/26 07:53:40;;;;;;;6.63;4.15;;;13.70;93.90;;;;;;5072001;28;20074;-46
2024/02/26 07:56:06;;;;;;;8.40;3.83;;;13.70;93.90;;;;;;5073464;28;20028;-45
2024/02/26 07:58:35;;;;;;;8.32;3.70;;;13.70;94.00;;;;;;5073129;28;20025;-44
2024/02/26 08:01:00;;;;;;;5.45;2.88;;;13.70;94.00;;;;;;5073203;28;20528;-46
2024/02/26 08:03:26;;;;;;;4.78;3.22;;;13.70;94.00;;;;;;5073019;28;20060;-46
2024/02/26 08:05:52;;;;;;;6.05;3.60;;;13.70;94.00;;;;;;5073146;28;20025;-46
2024/02/26 08:08:17;;;;;;;5.57;3.53;;;13.70;94.00;;;;;;5071593;28;20490;-46
2024/02/26 08:10:43;;;;;;;4.25;2.92;;;13.70;94.40;;;;;;5073153;28;20031;-46
2024/02/26 08:13:09;;;;;;;4.97;2.50;;;13.80;94.10;;;;;;5072923;28;20040;-47
2024/02/26 08:15:37;;;;;;;2.78;1.90;;;13.80;94.10;;;;;;5072886;28;20016;-46
2024/02/26 08:18:03;;;;;;;3.08;1.73;;;13.90;94.10;;;;;;5072559;28;20021;-46
2024/02/26 08:20:29;;;;;;;2.15;1.77;;;13.90;94.00;;;;;;5072795;28;20028;-46
2024/02/26 08:22:55;;;;;;;3.10;1.48;;;13.90;94.00;;;;;;5073273;28;20139;-47
2024/02/26 08:25:21;;;;;;;1.55;0.90;;;14.00;93.90;;;;;;5073382;28;20470;-46
2024/02/26 08:27:47;;;;;;;3.58;1.10;;;14.00;93.70;;;;;;5072526;28;20178;-46
2024/02/26 08:30:16;;;;;;;3.10;1.27;;;14.00;93.50;;;;;;5072721;28;20032;-46
2024/02/26 08:32:48;;;;;;;3.78;1.80;;;14.10;93.50;;;;;;5072806;28;20429;-46
2024/02/26 08:35:14;;;;;;;4.75;1.50;;;14.10;93.40;;;;;;5072718;28;20024;-46
2024/02/26 08:37:40;;;;;;;4.50;1.27;;;14.10;93.40;;;;;;5072213;28;20024;-46
2024/02/26 08:40:06;;;;;;;6.88;1.25;;;14.10;93.30;;;;;;5072402;28;20028;-46
2024/02/26 08:42:32;;;;;;;2.17;1.00;;;14.20;93.20;;;;;;5072538;28;20070;-46
2024/02/26 08:45:00;;;;;;;3.65;1.33;;;14.20;93.20;;;;;;5072494;28;20036;-46
2024/02/26 08:47:26;;;;;;;2.45;1.13;;;14.30;93.10;;;;;;5072929;28;20040;-46
2024/02/26 08:49:51;;;;;;;1.50;0.93;;;14.30;93.00;;;;;;5072338;28;20032;-46
2024/02/26 08:52:17;;;;;;;2.25;0.80;;;14.30;92.90;;;;;;5072325;28;20501;-44
2024/02/26 08:54:42;;;;;;;1.25;0.80;;;14.40;92.70;;;;;;5072186;28;20024;-47
2024/02/26 08:57:08;;;;;;;1.63;0.90;;;14.40;92.90;;;;;;5071899;28;20074;-46
2024/02/26 08:59:34;;;;;;;2.17;0.85;;;14.40;92.50;;;;;;5071807;28;20028;-46
2024/02/26 09:01:59;;;;;;;1.65;0.98;;;14.50;92.40;;;;;;5070544;28;20363;-46
2024/02/26 09:04:27;;;;;;;1.25;1.02;;;14.50;92.40;;;;;;5071891;28;20371;-46
2024/02/26 09:06:53;;;;;;;1.00;0.70;;;14.50;92.30;;;;;;5071773;28;20020;-46
2024/02/26 09:09:20;;;;;;;1.38;0.90;;;14.50;92.20;;;;;;5071610;28;20529;-46
2024/02/26 09:11:45;;;;;;;1.63;0.90;;;14.60;92.20;;;;;;5071297;28;20436;-47
2024/02/26 09:14:12;;;;;;;1.20;0.80;;;14.60;92.20;;;;;;5071748;28;20017;-45
2024/02/26 09:16:37;;;;;;;1.73;1.05;;;14.60;92.20;;;;;;5071576;28;20029;-46
2024/02/26 09:19:03;;;;;;;1.50;0.98;;;14.70;92.20;;;;;;5069879;28;20046;-46
2024/02/26 09:21:29;;;;;;;1.38;0.98;;;14.70;92.10;;;;;;5071689;28;20032;-46
2024/02/26 09:23:54;;;;;;;1.98;0.98;;;14.70;92.20;;;;;;5071637;28;20390;-47
2024/02/26 09:26:20;;;;;;;1.40;1.00;;;14.80;92.20;;;;;;5071353;28;20082;-47
2024/02/26 09:28:46;;;;;;;2.17;1.08;;;14.80;92.20;;;;;;5071178;28;20493;-45
2024/02/26 09:31:12;;;;;;;1.20;0.80;;;14.80;92.20;;;;;;5071114;28;20024;-46
2024/02/26 09:33:37;;;;;;;3.20;0.80;;;14.90;92.20;;;;;;5071542;28;20482;-46
2024/02/26 09:36:04;;;;;;;1.45;0.80;;;14.90;92.20;;;;;;5071289;28;20127;-46
2024/02/26 09:38:30;;;;;;;1.20;0.80;;;15.00;92.20;;;;;;5071188;28;20024;-45
2024/02/26 09:40:59;;;;;;;3.75;1.00;;;15.00;92.20;;;;;;5071196;28;20020;-46
2024/02/26 09:43:31;;;;;;;1.35;0.60;;;15.00;92.10;;;;;;5071410;28;20032;-46
2024/02/26 09:45:57;;;;;;;2.78;0.80;;;15.10;92.10;;;;;;5071399;28;20484;-46
2024/02/26 09:48:24;;;;;;;1.50;0.60;;;15.10;92.10;;;;;;5071236;28;20645;-46
2024/02/26 09:50:50;;;;;;;1.27;0.70;;;15.10;92.00;;;;;;5070966;28;20021;-46
2024/02/26 09:53:18;;;;;;;1.67;0.55;;;15.20;92.00;;;;;;5071106;28;20028;-46
2024/02/26 09:55:43;;;;;;;1.58;0.80;;;15.20;91.90;;;;;;5070962;28;20112;-46
2024/02/26 09:58:10;;;;;;;4.22;1.13;;;15.20;91.90;;;;;;5070774;28;20111;-46
2024/02/26 10:00:39;;;;;;;0.93;0.65;;;15.30;91.90;;;;;;5070918;28;20075;-46
2024/02/26 10:03:06;;;;;;;1.10;0.60;;;15.30;91.80;;;;;;5069804;28;20377;-46
2024/02/26 10:05:37;;;;;;;1.15;0.60;;;15.40;91.80;;;;;;5070947;28;20062;-46
2024/02/26 10:08:04;;;;;;;1.40;0.70;;;15.50;92.10;;;;;;5070845;28;20044;-46
2024/02/26 10:10:32;;;;;;;1.67;0.70;;;15.50;91.70;;;;;;5070651;28;20037;-46
2024/02/26 10:13:00;;;;;;;2.20;0.82;;;15.50;91.70;;;;;;5070894;28;20020;-46
2024/02/26 10:15:27;;;;;;;0.98;0.80;;;15.60;91.60;;;;;;5070778;28;20100;-46
2024/02/26 10:17:52;;;;;;;1.05;0.75;;;15.60;91.50;;;;;;5071049;28;20130;-45
2024/02/26 10:20:21;;;;;;;0.93;0.60;;;15.70;91.50;;;;;;5071030;28;20021;-42
2024/02/26 10:22:47;;;;;;;1.23;0.80;;;15.80;91.40;;;;;;5071145;28;20067;-45
2024/02/26 10:25:13;;;;;;;1.67;0.80;;;15.80;91.40;;;;;;5074835;28;20024;-43
2024/02/26 10:27:42;;;;;;;1.00;0.60;;;15.90;91.30;;;;;;5074090;28;20117;-42
2024/02/26 10:30:22;;;;;;;1.23;0.65;;;15.90;91.20;;;;;;5074969;28;20395;-44
2024/02/26 10:32:49;;;;;;;1.05;0.63;;;16.00;91.20;;;;;;5074771;28;20017;-45
2024/02/26 10:35:20;;;;;;;0.77;0.60;;;16.10;91.10;;;;;;5074767;28;20183;-42
2024/02/26 10:37:46;;;;;;;1.98;0.80;;;16.10;91.10;;;;;;5074596;28;20056;-44
2024/02/26 10:40:13;;;;;;;0.82;0.52;;;16.10;91.00;;;;;;5074438;28;20028;-43
2024/02/26 10:42:40;;;;;;;1.15;0.70;;;16.20;91.00;;;;;;5074803;28;20029;-43
2024/02/26 10:45:08;;;;;;;0.68;0.63;;;16.20;90.90;;;;;;5074820;28;20024;-45
2024/02/26 10:47:35;;;;;;;0.80;0.50;;;16.30;90.90;;;;;;5074287;28;20024;-45
2024/02/26 10:50:06;;;;;;;1.45;0.80;;;16.30;90.80;;;;;;5074393;28;20518;-44
2024/02/26 10:52:33;;;;;;;0.60;0.40;;;16.30;90.80;;;;;;5074406;28;20041;-45
2024/02/26 10:55:06;;;;;;;1.65;0.65;;;16.40;90.70;;;;;;5074290;28;20032;-46
2024/02/26 10:57:36;;;;;;;1.45;0.65;;;16.40;90.70;;;;;;5074125;28;20037;-46
2024/02/26 11:00:04;;;;;;;1.00;0.40;;;16.50;90.60;;;;;;5074094;28;20024;-45
2024/02/26 11:02:35;;;;;;;0.90;0.57;;;16.50;90.60;;;;;;5074270;28;20079;-45
2024/02/26 11:05:05;;;;;;;0.80;0.52;;;16.60;90.60;;;;;;5074716;28;20514;-46
2024/02/26 11:07:31;;;;;;;1.05;0.60;;;16.60;90.50;;;;;;5073881;28;20039;-46
2024/02/26 11:10:00;;;;;;;1.02;0.60;;;16.60;90.40;;;;;;5073867;28;20056;-46
2024/02/26 11:12:28;;;;;;;1.80;0.70;;;16.70;90.40;;;;;;5074007;28;20407;-44
2024/02/26 11:14:56;;;;;;;1.65;0.50;;;16.80;90.30;;;;;;5074251;28;20596;-43
2024/02/26 11:17:23;;;;;;;1.30;0.60;;;16.80;90.30;;;;;;5072535;28;20020;-43
2024/02/26 11:19:51;;;;;;;1.17;0.60;;;16.90;90.20;;;;;;5073582;28;20024;-42
2024/02/26 11:22:17;;;;;;;1.48;0.65;;;16.90;90.20;;;;;;5074110;28;20028;-46
2024/02/26 11:24:43;;;;;;;0.80;0.60;;;17.00;90.10;;;;;;5073793;28;20081;-45
2024/02/26 11:27:11;;;;;;;1.05;0.60;;;17.00;90.10;;;;;;5072983;28;20034;-46
2024/02/26 11:29:50;;;;;;;1.17;0.57;;;17.00;90.40;;;;;;5073576;28;20542;-46
2024/02/26 11:32:16;;;;;;;0.70;0.52;;;17.10;90.00;;;;;;5073811;28;20033;-46
2024/02/26 11:34:42;;;;;;;1.00;0.57;;;17.10;90.00;;;;;;5073406;28;20435;-46
2024/02/26 11:37:15;;;;;;;1.33;0.60;;;17.20;90.00;;;;;;5073842;28;20020;-47
2024/02/26 11:39:41;;;;;;;1.70;0.50;;;17.20;89.90;;;;;;5073430;28;20023;-47
2024/02/26 11:42:13;;;;;;;0.93;0.57;;;17.30;89.90;;;;;;5073655;28;20127;-45
2024/02/26 11:44:39;;;;;;;0.80;0.43;;;17.30;89.90;;;;;;5073639;28;20032;-47
2024/02/26 11:47:10;;;;;;;0.80;0.50;;;17.30;89.90;;;;;;5073431;28;20025;-47
2024/02/26 11:49:36;;;;;;;0.93;0.50;;;17.40;89.90;;;;;;5073228;28;20111;-47
2024/02/26 11:52:08;;;;;;;0.98;0.57;;;17.40;89.80;;;;;;5073389;28;20116;-47
2024/02/26 11:54:47;;;;;;;1.00;0.60;;;17.50;89.70;;;;;;5073414;28;20028;-46
2024/02/26 11:57:27;;;;;;;0.88;0.40;;;17.50;89.50;;;;;;5073270;28;20016;-45
2024/02/26 11:59:53;;;;;;;0.45;0.40;;;17.60;89.40;;;;;;5073074;28;20025;-46
2024/02/26 12:02:47;;;;;;;1.05;0.40;;;17.60;89.20;;;;;;5073110;28;20103;-45
2024/02/26 12:05:19;;;;;;;1.50;0.82;;;17.70;89.00;;;;;;5072915;28;20112;-45
2024/02/26 12:07:49;;;;;;;1.02;0.40;;;17.70;88.70;;;;;;5072919;28;20063;-46
2024/02/26 12:10:26;;;;;;;1.30;0.70;;;17.80;88.50;;;;;;5072903;28;20024;-46
2024/02/26 12:13:00;;;;;;;1.10;0.50;;;17.80;88.30;;;;;;5073015;28;20016;-45
2024/02/26 12:15:36;;;;;;;1.05;0.43;;;17.90;88.20;;;;;;5072957;28;20032;-45
2024/02/26 12:18:04;;;;;;;0.80;0.50;;;17.90;88.00;;;;;;5072840;28;20107;-46
2024/02/26 12:20:31;;;;;;;1.17;0.47;;;17.90;87.90;;;;;;5072678;28;20028;-46
2024/02/26 12:22:56;;;;;;;0.68;0.50;;;17.90;87.80;;;;;;5072687;28;20556;-46
2024/02/26 12:25:26;;;;;;;1.88;0.57;;;18.00;87.80;;;;;;5072683;28;20024;-45
2024/02/26 12:27:52;;;;;;;0.57;0.32;;;18.00;87.70;;;;;;5071855;28;20044;-46
2024/02/26 12:30:19;;;;;;;0.82;0.50;;;18.00;87.60;;;;;;5072633;28;20029;-46
2024/02/26 12:32:45;;;;;;;0.75;0.50;;;18.00;87.60;;;;;;5072712;28;20028;-45
2024/02/26 12:35:11;;;;;;;1.02;0.70;;;18.00;87.60;;;;;;5072647;28;20089;-46
2024/02/26 12:37:38;;;;;;;2.33;1.10;;;18.00;87.50;;;;;;5072174;28;20478;-45
2024/02/26 12:40:08;;;;;;;2.17;1.30;;;18.00;87.00;;;;;;5072334;28;20025;-45
2024/02/26 12:42:39;;;;;;;2.97;1.50;;;18.00;86.40;;;;;;5072840;28;20028;-45
2024/02/26 12:45:12;;;;;;;3.13;1.77;;;18.00;86.00;;;;;;5072317;28;20109;-46